sensor_id;sensor_type;location;lat;lon;timestamp;temperature;humidity
1468;DHT22;727;48.892;9.544;2023-08-06T00:00:41;14.90;99.90
1468;DHT22;727;48.892;9.544;2023-08-06T00:03:07;14.90;99.90
1468;DHT22;727;48.892;9.544;2023-08-06T00:05:34;14.90;99.90
1468;DHT22;727;48.892;9.544;2023-08-06T00:08:01;14.90;99.90
1468;DHT22;727;48.892;9.544;2023-08-06T00:10:27;14.90;99.90
1468;DHT22;727;48.892;9.544;2023-08-06T00:12:54;14.90;99.90
1468;DHT22;727;48.892;9.544;2023-08-06T00:15:22;14.90;99.90
1468;DHT22;727;48.892;9.544;2023-08-06T00:17:49;14.90;99.90
1468;DHT22;727;48.892;9.544;2023-08-06T00:20:16;14.90;99.90
1468;DHT22;727;48.892;9.544;2023-08-06T00:22:42;14.90;99.90
1468;DHT22;727;48.892;9.544;2023-08-06T00:25:09;14.90;99.90
1468;DHT22;727;48.892;9.544;2023-08-06T00:27:36;15.00;99.90
1468;DHT22;727;48.892;9.544;2023-08-06T00:30:04;15.00;99.90
1468;DHT22;727;48.892;9.544;2023-08-06T00:32:32;14.90;99.90
1468;DHT22;727;48.892;9.544;2023-08-06T00:34:59;15.00;99.90
1468;DHT22;727;48.892;9.544;2023-08-06T00:37:26;15.10;99.90
1468;DHT22;727;48.892;9.544;2023-08-06T00:39:53;15.00;99.90
1468;DHT22;727;48.892;9.544;2023-08-06T00:42:19;14.90;99.90
1468;DHT22;727;48.892;9.544;2023-08-06T00:44:48;14.90;99.90
1468;DHT22;727;48.892;9.544;2023-08-06T00:47:15;14.80;99.90
1468;DHT22;727;48.892;9.544;2023-08-06T00:49:43;14.80;99.90
1468;DHT22;727;48.892;9.544;2023-08-06T00:52:10;14.90;99.90
1468;DHT22;727;48.892;9.544;2023-08-06T00:54:38;14.90;99.90
1468;DHT22;727;48.892;9.544;2023-08-06T00:57:07;14.90;99.90
1468;DHT22;727;48.892;9.544;2023-08-06T00:59:34;14.90;99.90
1468;DHT22;727;48.892;9.544;2023-08-06T01:02:01;14.90;99.90
1468;DHT22;727;48.892;9.544;2023-08-06T01:04:28;14.90;99.90
1468;DHT22;727;48.892;9.544;2023-08-06T01:07:03;14.90;99.90
1468;DHT22;727;48.892;9.544;2023-08-06T01:09:38;14.90;99.90
1468;DHT22;727;48.892;9.544;2023-08-06T01:12:15;14.90;99.90
1468;DHT22;727;48.892;9.544;2023-08-06T01:14:50;14.90;99.90
1468;DHT22;727;48.892;9.544;2023-08-06T01:17:19;15.00;99.90
1468;DHT22;727;48.892;9.544;2023-08-06T01:19:46;15.00;99.90
1468;DHT22;727;48.892;9.544;2023-08-06T01:22:14;15.00;99.90
1468;DHT22;727;48.892;9.544;2023-08-06T01:24:45;15.00;99.90
1468;DHT22;727;48.892;9.544;2023-08-06T01:27:17;15.00;99.90
1468;DHT22;727;48.892;9.544;2023-08-06T01:29:55;15.00;99.90
1468;DHT22;727;48.892;9.544;2023-08-06T01:32:25;15.00;99.90
1468;DHT22;727;48.892;9.544;2023-08-06T01:34:54;15.00;99.90
1468;DHT22;727;48.892;9.544;2023-08-06T01:37:22;14.90;99.90
1468;DHT22;727;48.892;9.544;2023-08-06T01:39:49;14.90;99.90
1468;DHT22;727;48.892;9.544;2023-08-06T01:42:16;14.80;99.90
1468;DHT22;727;48.892;9.544;2023-08-06T01:44:43;14.80;99.90
1468;DHT22;727;48.892;9.544;2023-08-06T01:47:10;14.70;99.90
1468;DHT22;727;48.892;9.544;2023-08-06T01:49:36;14.60;99.90
1468;DHT22;727;48.892;9.544;2023-08-06T01:52:04;14.60;99.90
1468;DHT22;727;48.892;9.544;2023-08-06T01:54:32;14.50;99.90
1468;DHT22;727;48.892;9.544;2023-08-06T01:56:58;14.50;99.90
1468;DHT22;727;48.892;9.544;2023-08-06T01:59:25;14.50;99.90
1468;DHT22;727;48.892;9.544;2023-08-06T02:01:52;14.50;99.90
1468;DHT22;727;48.892;9.544;2023-08-06T02:04:19;14.50;99.90
1468;DHT22;727;48.892;9.544;2023-08-06T02:06:46;14.50;99.90
1468;DHT22;727;48.892;9.544;2023-08-06T02:09:12;14.50;99.90
1468;DHT22;727;48.892;9.544;2023-08-06T02:11:40;14.50;99.90
1468;DHT22;727;48.892;9.544;2023-08-06T02:14:07;14.50;99.90
1468;DHT22;727;48.892;9.544;2023-08-06T02:16:34;14.50;99.90
1468;DHT22;727;48.892;9.544;2023-08-06T02:19:01;14.60;99.90
1468;DHT22;727;48.892;9.544;2023-08-06T02:21:27;14.60;99.90
1468;DHT22;727;48.892;9.544;2023-08-06T02:23:54;14.60;99.90
1468;DHT22;727;48.892;9.544;2023-08-06T02:26:21;14.60;99.90
1468;DHT22;727;48.892;9.544;2023-08-06T02:28:49;14.70;99.90
1468;DHT22;727;48.892;9.544;2023-08-06T02:31:16;14.70;99.90
1468;DHT22;727;48.892;9.544;2023-08-06T02:33:43;14.70;99.90
1468;DHT22;727;48.892;9.544;2023-08-06T02:36:09;14.70;99.90
1468;DHT22;727;48.892;9.544;2023-08-06T02:38:36;14.70;99.90
1468;DHT22;727;48.892;9.544;2023-08-06T02:41:03;14.70;99.90
1468;DHT22;727;48.892;9.544;2023-08-06T02:43:30;14.60;99.90
1468;DHT22;727;48.892;9.544;2023-08-06T02:45:59;14.60;99.90
1468;DHT22;727;48.892;9.544;2023-08-06T02:48:26;14.60;99.90
1468;DHT22;727;48.892;9.544;2023-08-06T02:50:56;14.60;99.90
1468;DHT22;727;48.892;9.544;2023-08-06T02:53:23;14.60;99.90
1468;DHT22;727;48.892;9.544;2023-08-06T02:55:49;14.60;99.90
1468;DHT22;727;48.892;9.544;2023-08-06T02:58:17;14.60;99.90
1468;DHT22;727;48.892;9.544;2023-08-06T03:01:00;14.60;99.90
1468;DHT22;727;48.892;9.544;2023-08-06T03:03:28;14.60;99.90
1468;DHT22;727;48.892;9.544;2023-08-06T03:05:55;14.60;99.90
1468;DHT22;727;48.892;9.544;2023-08-06T03:08:21;14.60;99.90
1468;DHT22;727;48.892;9.544;2023-08-06T03:10:48;14.60;99.90
1468;DHT22;727;48.892;9.544;2023-08-06T03:13:15;14.60;99.90
1468;DHT22;727;48.892;9.544;2023-08-06T03:15:42;14.60;99.90
1468;DHT22;727;48.892;9.544;2023-08-06T03:18:10;14.60;99.90
1468;DHT22;727;48.892;9.544;2023-08-06T03:20:37;14.60;99.90
1468;DHT22;727;48.892;9.544;2023-08-06T03:23:04;14.60;99.90
1468;DHT22;727;48.892;9.544;2023-08-06T03:25:30;14.60;99.90
1468;DHT22;727;48.892;9.544;2023-08-06T03:27:57;14.60;99.90
1468;DHT22;727;48.892;9.544;2023-08-06T03:30:24;14.50;99.90
1468;DHT22;727;48.892;9.544;2023-08-06T03:32:51;14.50;99.90
1468;DHT22;727;48.892;9.544;2023-08-06T03:35:19;14.50;99.90
1468;DHT22;727;48.892;9.544;2023-08-06T03:37:46;14.50;99.90
1468;DHT22;727;48.892;9.544;2023-08-06T03:40:12;14.50;99.90
1468;DHT22;727;48.892;9.544;2023-08-06T03:42:39;14.50;99.90
1468;DHT22;727;48.892;9.544;2023-08-06T03:45:07;14.50;99.90
1468;DHT22;727;48.892;9.544;2023-08-06T03:47:34;14.50;99.90
1468;DHT22;727;48.892;9.544;2023-08-06T03:50:01;14.50;99.90
1468;DHT22;727;48.892;9.544;2023-08-06T03:52:29;14.60;99.90
1468;DHT22;727;48.892;9.544;2023-08-06T03:54:55;14.50;99.90
1468;DHT22;727;48.892;9.544;2023-08-06T03:57:22;14.60;99.90
1468;DHT22;727;48.892;9.544;2023-08-06T03:59:49;14.60;99.90
1468;DHT22;727;48.892;9.544;2023-08-06T04:02:16;14.60;99.90
1468;DHT22;727;48.892;9.544;2023-08-06T04:04:42;14.60;99.90
1468;DHT22;727;48.892;9.544;2023-08-06T04:07:10;14.60;99.90
1468;DHT22;727;48.892;9.544;2023-08-06T04:09:53;14.60;99.90
1468;DHT22;727;48.892;9.544;2023-08-06T04:12:20;14.60;99.90
1468;DHT22;727;48.892;9.544;2023-08-06T04:14:47;14.60;99.90
1468;DHT22;727;48.892;9.544;2023-08-06T04:17:13;14.70;99.90
1468;DHT22;727;48.892;9.544;2023-08-06T04:19:40;14.70;99.90
1468;DHT22;727;48.892;9.544;2023-08-06T04:22:07;14.70;99.90
1468;DHT22;727;48.892;9.544;2023-08-06T04:24:33;14.70;99.90
1468;DHT22;727;48.892;9.544;2023-08-06T04:27:02;14.70;99.90
1468;DHT22;727;48.892;9.544;2023-08-06T04:29:29;14.80;99.90
1468;DHT22;727;48.892;9.544;2023-08-06T04:31:55;14.80;99.90
1468;DHT22;727;48.892;9.544;2023-08-06T04:34:22;14.80;99.90
1468;DHT22;727;48.892;9.544;2023-08-06T04:36:49;14.80;99.90
1468;DHT22;727;48.892;9.544;2023-08-06T04:39:15;14.80;99.90
1468;DHT22;727;48.892;9.544;2023-08-06T04:41:42;14.80;99.90
1468;DHT22;727;48.892;9.544;2023-08-06T04:44:11;14.80;99.90
1468;DHT22;727;48.892;9.544;2023-08-06T04:46:37;14.80;99.90
1468;DHT22;727;48.892;9.544;2023-08-06T04:49:04;14.80;99.90
1468;DHT22;727;48.892;9.544;2023-08-06T04:51:31;14.80;99.90
1468;DHT22;727;48.892;9.544;2023-08-06T04:53:58;14.80;99.90
1468;DHT22;727;48.892;9.544;2023-08-06T04:56:24;14.80;99.90
1468;DHT22;727;48.892;9.544;2023-08-06T04:58:51;14.70;99.90
1468;DHT22;727;48.892;9.544;2023-08-06T05:01:19;14.70;99.90
1468;DHT22;727;48.892;9.544;2023-08-06T05:03:47;14.70;99.90
1468;DHT22;727;48.892;9.544;2023-08-06T05:06:13;14.70;99.90
1468;DHT22;727;48.892;9.544;2023-08-06T05:08:40;14.70;99.90
1468;DHT22;727;48.892;9.544;2023-08-06T05:11:07;14.70;99.90
1468;DHT22;727;48.892;9.544;2023-08-06T05:13:33;14.70;99.90
1468;DHT22;727;48.892;9.544;2023-08-06T05:16:00;14.80;99.90
1468;DHT22;727;48.892;9.544;2023-08-06T05:18:28;14.80;99.90
1468;DHT22;727;48.892;9.544;2023-08-06T05:20:56;14.80;99.90
1468;DHT22;727;48.892;9.544;2023-08-06T05:23:23;14.80;99.90
1468;DHT22;727;48.892;9.544;2023-08-06T05:25:51;14.80;99.90
1468;DHT22;727;48.892;9.544;2023-08-06T05:28:17;14.80;99.90
1468;DHT22;727;48.892;9.544;2023-08-06T05:30:44;14.80;99.90
1468;DHT22;727;48.892;9.544;2023-08-06T05:33:11;14.90;99.90
1468;DHT22;727;48.892;9.544;2023-08-06T05:35:40;14.90;99.90
1468;DHT22;727;48.892;9.544;2023-08-06T05:38:07;14.90;99.90
1468;DHT22;727;48.892;9.544;2023-08-06T05:40:34;14.90;99.90
1468;DHT22;727;48.892;9.544;2023-08-06T05:43:01;15.00;99.90
1468;DHT22;727;48.892;9.544;2023-08-06T05:45:27;15.00;99.90
1468;DHT22;727;48.892;9.544;2023-08-06T05:47:54;15.00;99.90
1468;DHT22;727;48.892;9.544;2023-08-06T05:50:23;15.10;99.90
1468;DHT22;727;48.892;9.544;2023-08-06T05:52:51;15.20;99.90
1468;DHT22;727;48.892;9.544;2023-08-06T05:55:19;15.30;99.90
1468;DHT22;727;48.892;9.544;2023-08-06T05:57:46;15.40;99.90
1468;DHT22;727;48.892;9.544;2023-08-06T06:00:13;15.50;99.90
1468;DHT22;727;48.892;9.544;2023-08-06T06:02:40;15.90;99.90
1468;DHT22;727;48.892;9.544;2023-08-06T06:05:07;16.30;99.90
1468;DHT22;727;48.892;9.544;2023-08-06T06:07:34;16.80;99.90
1468;DHT22;727;48.892;9.544;2023-08-06T06:10:02;17.80;99.90
1468;DHT22;727;48.892;9.544;2023-08-06T06:12:29;19.40;99.90
1468;DHT22;727;48.892;9.544;2023-08-06T06:14:55;19.40;99.90
1468;DHT22;727;48.892;9.544;2023-08-06T06:17:22;18.90;99.90
1468;DHT22;727;48.892;9.544;2023-08-06T06:19:50;18.10;99.90
1468;DHT22;727;48.892;9.544;2023-08-06T06:22:17;17.70;99.90
1468;DHT22;727;48.892;9.544;2023-08-06T06:24:44;17.20;99.90
1468;DHT22;727;48.892;9.544;2023-08-06T06:27:12;16.90;99.90
1468;DHT22;727;48.892;9.544;2023-08-06T06:29:39;16.80;99.90
1468;DHT22;727;48.892;9.544;2023-08-06T06:32:06;16.60;99.90
1468;DHT22;727;48.892;9.544;2023-08-06T06:34:33;16.50;99.90
1468;DHT22;727;48.892;9.544;2023-08-06T06:37:00;16.30;99.90
1468;DHT22;727;48.892;9.544;2023-08-06T06:39:26;16.30;99.90
1468;DHT22;727;48.892;9.544;2023-08-06T06:41:53;16.20;99.90
1468;DHT22;727;48.892;9.544;2023-08-06T06:44:21;16.30;99.90
1468;DHT22;727;48.892;9.544;2023-08-06T06:46:48;16.30;99.90
1468;DHT22;727;48.892;9.544;2023-08-06T06:49:15;16.40;99.90
1468;DHT22;727;48.892;9.544;2023-08-06T06:51:42;16.40;99.90
1468;DHT22;727;48.892;9.544;2023-08-06T06:54:08;16.20;99.90
1468;DHT22;727;48.892;9.544;2023-08-06T06:56:35;16.10;99.90
1468;DHT22;727;48.892;9.544;2023-08-06T06:59:02;15.80;99.90
1468;DHT22;727;48.892;9.544;2023-08-06T07:01:30;15.80;99.90
1468;DHT22;727;48.892;9.544;2023-08-06T07:03:57;15.60;99.90
1468;DHT22;727;48.892;9.544;2023-08-06T07:06:23;15.70;99.90
1468;DHT22;727;48.892;9.544;2023-08-06T07:08:50;15.70;99.90
1468;DHT22;727;48.892;9.544;2023-08-06T07:11:17;15.70;99.90
1468;DHT22;727;48.892;9.544;2023-08-06T07:13:44;15.80;99.90
1468;DHT22;727;48.892;9.544;2023-08-06T07:16:13;15.90;99.90
1468;DHT22;727;48.892;9.544;2023-08-06T07:18:41;15.90;99.90
1468;DHT22;727;48.892;9.544;2023-08-06T07:21:08;15.90;99.90
1468;DHT22;727;48.892;9.544;2023-08-06T07:23:34;15.90;99.90
1468;DHT22;727;48.892;9.544;2023-08-06T07:26:01;15.90;99.90
1468;DHT22;727;48.892;9.544;2023-08-06T07:28:28;15.90;99.90
1468;DHT22;727;48.892;9.544;2023-08-06T07:30:55;15.90;99.90
1468;DHT22;727;48.892;9.544;2023-08-06T07:33:21;15.90;99.90
1468;DHT22;727;48.892;9.544;2023-08-06T07:35:49;15.80;99.90
1468;DHT22;727;48.892;9.544;2023-08-06T07:38:16;15.90;99.90
1468;DHT22;727;48.892;9.544;2023-08-06T07:40:43;15.80;99.90
1468;DHT22;727;48.892;9.544;2023-08-06T07:43:10;15.80;99.90
1468;DHT22;727;48.892;9.544;2023-08-06T07:45:38;15.90;99.90
1468;DHT22;727;48.892;9.544;2023-08-06T07:48:05;16.00;99.90
1468;DHT22;727;48.892;9.544;2023-08-06T07:50:32;16.00;99.90
1468;DHT22;727;48.892;9.544;2023-08-06T07:53:10;16.10;99.90
1468;DHT22;727;48.892;9.544;2023-08-06T07:55:39;16.10;99.90
1468;DHT22;727;48.892;9.544;2023-08-06T07:58:08;16.00;99.90
1468;DHT22;727;48.892;9.544;2023-08-06T08:00:35;16.00;99.90
1468;DHT22;727;48.892;9.544;2023-08-06T08:03:25;16.00;99.90
1468;DHT22;727;48.892;9.544;2023-08-06T08:06:43;16.10;99.90
1468;DHT22;727;48.892;9.544;2023-08-06T08:12:02;16.10;99.90
1468;DHT22;727;48.892;9.544;2023-08-06T08:14:44;16.00;99.90
1468;DHT22;727;48.892;9.544;2023-08-06T08:17:38;16.00;99.90
1468;DHT22;727;48.892;9.544;2023-08-06T08:20:09;16.00;99.90
1468;DHT22;727;48.892;9.544;2023-08-06T08:23:11;15.90;99.90
1468;DHT22;727;48.892;9.544;2023-08-06T08:26:06;15.90;99.90
1468;DHT22;727;48.892;9.544;2023-08-06T08:28:34;16.00;99.90
1468;DHT22;727;48.892;9.544;2023-08-06T08:31:08;16.00;99.90
1468;DHT22;727;48.892;9.544;2023-08-06T08:33:35;16.00;99.90
1468;DHT22;727;48.892;9.544;2023-08-06T08:36:05;15.90;99.90
1468;DHT22;727;48.892;9.544;2023-08-06T08:38:49;15.90;99.90
1468;DHT22;727;48.892;9.544;2023-08-06T08:41:28;15.90;99.90
1468;DHT22;727;48.892;9.544;2023-08-06T08:54:31;16.70;99.90
1468;DHT22;727;48.892;9.544;2023-08-06T08:57:00;17.00;99.90
1468;DHT22;727;48.892;9.544;2023-08-06T09:02:50;17.20;99.90
1468;DHT22;727;48.892;9.544;2023-08-06T09:05:41;17.20;99.90
1468;DHT22;727;48.892;9.544;2023-08-06T09:08:20;17.10;99.90
1468;DHT22;727;48.892;9.544;2023-08-06T09:10:50;17.00;99.90
1468;DHT22;727;48.892;9.544;2023-08-06T09:13:19;17.00;99.90
1468;DHT22;727;48.892;9.544;2023-08-06T09:16:22;16.90;99.90
1468;DHT22;727;48.892;9.544;2023-08-06T09:26:52;16.40;99.90
1468;DHT22;727;48.892;9.544;2023-08-06T09:29:19;16.40;99.90
1468;DHT22;727;48.892;9.544;2023-08-06T09:31:48;16.50;99.90
1468;DHT22;727;48.892;9.544;2023-08-06T09:34:17;16.40;99.90
1468;DHT22;727;48.892;9.544;2023-08-06T09:36:47;16.20;99.90
1468;DHT22;727;48.892;9.544;2023-08-06T09:39:20;16.00;99.90
1468;DHT22;727;48.892;9.544;2023-08-06T09:41:47;15.90;99.90
1468;DHT22;727;48.892;9.544;2023-08-06T09:44:20;15.90;99.90
1468;DHT22;727;48.892;9.544;2023-08-06T09:46:49;16.00;99.90
1468;DHT22;727;48.892;9.544;2023-08-06T09:49:17;16.00;99.90
1468;DHT22;727;48.892;9.544;2023-08-06T09:51:44;16.00;99.90
1468;DHT22;727;48.892;9.544;2023-08-06T09:54:12;16.00;99.90
1468;DHT22;727;48.892;9.544;2023-08-06T09:56:40;16.00;99.90
1468;DHT22;727;48.892;9.544;2023-08-06T09:59:08;15.90;99.90
1468;DHT22;727;48.892;9.544;2023-08-06T10:01:38;16.10;99.90
1468;DHT22;727;48.892;9.544;2023-08-06T10:04:06;16.30;99.90
1468;DHT22;727;48.892;9.544;2023-08-06T10:06:35;16.60;99.90
1468;DHT22;727;48.892;9.544;2023-08-06T10:09:02;16.50;99.90
1468;DHT22;727;48.892;9.544;2023-08-06T10:11:29;16.60;99.90
1468;DHT22;727;48.892;9.544;2023-08-06T10:14:00;16.50;99.90
1468;DHT22;727;48.892;9.544;2023-08-06T10:16:29;16.50;99.90
1468;DHT22;727;48.892;9.544;2023-08-06T10:18:58;16.40;99.90
1468;DHT22;727;48.892;9.544;2023-08-06T10:21:26;16.30;99.90
1468;DHT22;727;48.892;9.544;2023-08-06T10:23:55;16.40;99.90
1468;DHT22;727;48.892;9.544;2023-08-06T10:26:25;16.60;99.90
1468;DHT22;727;48.892;9.544;2023-08-06T10:28:52;16.80;99.90
1468;DHT22;727;48.892;9.544;2023-08-06T10:31:19;16.90;99.90
1468;DHT22;727;48.892;9.544;2023-08-06T10:33:47;16.80;99.90
1468;DHT22;727;48.892;9.544;2023-08-06T10:36:15;16.70;99.90
1468;DHT22;727;48.892;9.544;2023-08-06T10:38:47;16.50;99.90
1468;DHT22;727;48.892;9.544;2023-08-06T10:41:16;16.30;99.90
1468;DHT22;727;48.892;9.544;2023-08-06T10:43:43;16.40;99.90
1468;DHT22;727;48.892;9.544;2023-08-06T10:46:22;16.60;99.90
1468;DHT22;727;48.892;9.544;2023-08-06T10:48:49;16.80;99.90
1468;DHT22;727;48.892;9.544;2023-08-06T10:51:44;16.80;99.90
1468;DHT22;727;48.892;9.544;2023-08-06T10:54:15;16.70;99.90
1468;DHT22;727;48.892;9.544;2023-08-06T10:56:42;16.70;99.90
1468;DHT22;727;48.892;9.544;2023-08-06T10:59:10;16.80;99.90
1468;DHT22;727;48.892;9.544;2023-08-06T11:01:37;16.70;99.90
1468;DHT22;727;48.892;9.544;2023-08-06T11:04:05;16.60;99.90
1468;DHT22;727;48.892;9.544;2023-08-06T11:06:32;16.60;99.90
1468;DHT22;727;48.892;9.544;2023-08-06T11:09:01;16.50;99.90
1468;DHT22;727;48.892;9.544;2023-08-06T11:11:28;16.60;99.90
1468;DHT22;727;48.892;9.544;2023-08-06T11:13:55;16.60;99.90
1468;DHT22;727;48.892;9.544;2023-08-06T11:16:23;16.50;99.90
1468;DHT22;727;48.892;9.544;2023-08-06T11:18:53;16.40;99.90
1468;DHT22;727;48.892;9.544;2023-08-06T11:21:22;16.30;99.90
1468;DHT22;727;48.892;9.544;2023-08-06T11:23:50;16.20;99.90
1468;DHT22;727;48.892;9.544;2023-08-06T11:26:20;16.20;99.90
1468;DHT22;727;48.892;9.544;2023-08-06T11:28:48;16.10;99.90
1468;DHT22;727;48.892;9.544;2023-08-06T11:31:19;16.00;99.90
1468;DHT22;727;48.892;9.544;2023-08-06T11:33:46;16.00;99.90
1468;DHT22;727;48.892;9.544;2023-08-06T11:36:13;16.00;99.90
1468;DHT22;727;48.892;9.544;2023-08-06T11:38:39;16.00;99.90
1468;DHT22;727;48.892;9.544;2023-08-06T11:41:07;15.90;99.90
1468;DHT22;727;48.892;9.544;2023-08-06T11:43:35;15.90;99.90
1468;DHT22;727;48.892;9.544;2023-08-06T11:46:02;15.90;99.90
1468;DHT22;727;48.892;9.544;2023-08-06T11:48:29;15.80;99.90
1468;DHT22;727;48.892;9.544;2023-08-06T11:50:56;15.80;99.90
1468;DHT22;727;48.892;9.544;2023-08-06T11:53:27;15.80;99.90
1468;DHT22;727;48.892;9.544;2023-08-06T11:55:54;15.90;99.90
1468;DHT22;727;48.892;9.544;2023-08-06T11:58:21;15.90;99.90
1468;DHT22;727;48.892;9.544;2023-08-06T12:00:49;15.80;99.90
1468;DHT22;727;48.892;9.544;2023-08-06T12:03:18;15.70;99.90
1468;DHT22;727;48.892;9.544;2023-08-06T12:05:45;15.80;99.90
1468;DHT22;727;48.892;9.544;2023-08-06T12:08:13;15.80;99.90
1468;DHT22;727;48.892;9.544;2023-08-06T12:10:39;15.70;99.90
1468;DHT22;727;48.892;9.544;2023-08-06T12:13:06;15.70;99.90
1468;DHT22;727;48.892;9.544;2023-08-06T12:15:33;15.60;99.90
1468;DHT22;727;48.892;9.544;2023-08-06T12:18:01;15.50;99.90
1468;DHT22;727;48.892;9.544;2023-08-06T12:20:28;15.40;99.90
1468;DHT22;727;48.892;9.544;2023-08-06T12:22:55;15.40;99.90
1468;DHT22;727;48.892;9.544;2023-08-06T12:25:22;15.30;99.90
1468;DHT22;727;48.892;9.544;2023-08-06T12:27:49;15.20;99.90
1468;DHT22;727;48.892;9.544;2023-08-06T12:30:16;15.20;99.90
1468;DHT22;727;48.892;9.544;2023-08-06T12:32:43;15.20;99.90
1468;DHT22;727;48.892;9.544;2023-08-06T12:35:11;15.10;99.90
1468;DHT22;727;48.892;9.544;2023-08-06T12:37:39;15.10;99.90
1468;DHT22;727;48.892;9.544;2023-08-06T12:40:07;15.10;99.90
1468;DHT22;727;48.892;9.544;2023-08-06T12:42:34;15.10;99.90
1468;DHT22;727;48.892;9.544;2023-08-06T12:45:00;15.10;99.90
1468;DHT22;727;48.892;9.544;2023-08-06T12:47:28;15.10;99.90
1468;DHT22;727;48.892;9.544;2023-08-06T12:49:55;15.00;99.90
1468;DHT22;727;48.892;9.544;2023-08-06T12:52:23;14.90;99.90
1468;DHT22;727;48.892;9.544;2023-08-06T12:54:50;15.00;99.90
1468;DHT22;727;48.892;9.544;2023-08-06T12:57:16;14.90;99.90
1468;DHT22;727;48.892;9.544;2023-08-06T12:59:43;15.00;99.90
1468;DHT22;727;48.892;9.544;2023-08-06T13:02:10;15.10;99.90
1468;DHT22;727;48.892;9.544;2023-08-06T13:04:37;15.10;99.90
1468;DHT22;727;48.892;9.544;2023-08-06T13:07:04;15.20;99.90
1468;DHT22;727;48.892;9.544;2023-08-06T13:09:39;15.30;99.90
1468;DHT22;727;48.892;9.544;2023-08-06T13:12:06;15.30;99.90
1468;DHT22;727;48.892;9.544;2023-08-06T13:14:34;15.30;99.90
1468;DHT22;727;48.892;9.544;2023-08-06T13:17:01;15.30;99.90
1468;DHT22;727;48.892;9.544;2023-08-06T13:19:32;15.20;99.90
1468;DHT22;727;48.892;9.544;2023-08-06T13:22:02;15.10;99.90
1468;DHT22;727;48.892;9.544;2023-08-06T13:24:33;15.10;99.90
1468;DHT22;727;48.892;9.544;2023-08-06T13:27:01;15.30;99.90
1468;DHT22;727;48.892;9.544;2023-08-06T13:29:28;15.30;99.90
1468;DHT22;727;48.892;9.544;2023-08-06T13:31:55;15.40;99.90
1468;DHT22;727;48.892;9.544;2023-08-06T13:34:22;15.50;99.90
1468;DHT22;727;48.892;9.544;2023-08-06T13:36:49;15.50;99.90
1468;DHT22;727;48.892;9.544;2023-08-06T13:39:16;15.50;99.90
1468;DHT22;727;48.892;9.544;2023-08-06T13:41:44;15.60;99.90
1468;DHT22;727;48.892;9.544;2023-08-06T13:44:11;15.60;99.90
1468;DHT22;727;48.892;9.544;2023-08-06T13:46:39;15.70;99.90
1468;DHT22;727;48.892;9.544;2023-08-06T13:49:06;15.70;99.90
1468;DHT22;727;48.892;9.544;2023-08-06T13:51:33;15.60;99.90
1468;DHT22;727;48.892;9.544;2023-08-06T13:54:01;15.60;99.90
1468;DHT22;727;48.892;9.544;2023-08-06T13:56:28;15.60;99.90
1468;DHT22;727;48.892;9.544;2023-08-06T13:58:56;15.50;99.90
1468;DHT22;727;48.892;9.544;2023-08-06T14:01:23;15.40;99.90
1468;DHT22;727;48.892;9.544;2023-08-06T14:03:50;15.40;99.90
1468;DHT22;727;48.892;9.544;2023-08-06T14:06:18;15.40;99.90
1468;DHT22;727;48.892;9.544;2023-08-06T14:08:45;15.40;99.90
1468;DHT22;727;48.892;9.544;2023-08-06T14:11:12;15.40;99.90
1468;DHT22;727;48.892;9.544;2023-08-06T14:13:39;15.60;99.90
1468;DHT22;727;48.892;9.544;2023-08-06T14:16:07;15.60;99.90
1468;DHT22;727;48.892;9.544;2023-08-06T14:18:34;15.50;99.90
1468;DHT22;727;48.892;9.544;2023-08-06T14:21:03;15.60;99.90
1468;DHT22;727;48.892;9.544;2023-08-06T14:23:30;15.60;99.90
1468;DHT22;727;48.892;9.544;2023-08-06T14:25:57;15.60;99.90
1468;DHT22;727;48.892;9.544;2023-08-06T14:28:24;15.70;99.90
1468;DHT22;727;48.892;9.544;2023-08-06T14:30:51;15.80;99.90
1468;DHT22;727;48.892;9.544;2023-08-06T14:33:19;16.00;99.90
1468;DHT22;727;48.892;9.544;2023-08-06T14:35:46;16.30;99.90
1468;DHT22;727;48.892;9.544;2023-08-06T14:38:12;16.50;99.90
1468;DHT22;727;48.892;9.544;2023-08-06T14:40:39;16.50;99.90
1468;DHT22;727;48.892;9.544;2023-08-06T14:43:06;16.40;99.90
1468;DHT22;727;48.892;9.544;2023-08-06T14:45:33;16.30;99.90
1468;DHT22;727;48.892;9.544;2023-08-06T14:48:00;16.20;99.90
1468;DHT22;727;48.892;9.544;2023-08-06T14:50:28;16.10;99.90
1468;DHT22;727;48.892;9.544;2023-08-06T14:52:55;16.00;99.90
1468;DHT22;727;48.892;9.544;2023-08-06T14:55:25;15.80;99.90
1468;DHT22;727;48.892;9.544;2023-08-06T14:57:52;15.70;99.90
1468;DHT22;727;48.892;9.544;2023-08-06T15:00:19;15.60;99.90
1468;DHT22;727;48.892;9.544;2023-08-06T15:02:46;15.50;99.90
1468;DHT22;727;48.892;9.544;2023-08-06T15:05:13;15.40;99.90
1468;DHT22;727;48.892;9.544;2023-08-06T15:07:41;15.40;99.90
1468;DHT22;727;48.892;9.544;2023-08-06T15:10:08;15.30;99.90
1468;DHT22;727;48.892;9.544;2023-08-06T15:12:34;15.20;99.90
1468;DHT22;727;48.892;9.544;2023-08-06T15:15:01;15.10;99.90
1468;DHT22;727;48.892;9.544;2023-08-06T15:17:28;15.10;99.90
1468;DHT22;727;48.892;9.544;2023-08-06T15:19:56;15.10;99.90
1468;DHT22;727;48.892;9.544;2023-08-06T15:22:24;15.10;99.90
1468;DHT22;727;48.892;9.544;2023-08-06T15:24:52;15.20;99.90
1468;DHT22;727;48.892;9.544;2023-08-06T15:27:19;15.30;99.90
1468;DHT22;727;48.892;9.544;2023-08-06T15:29:45;15.40;99.90
1468;DHT22;727;48.892;9.544;2023-08-06T15:32:12;15.50;99.90
1468;DHT22;727;48.892;9.544;2023-08-06T15:34:39;15.70;99.90
1468;DHT22;727;48.892;9.544;2023-08-06T15:37:06;15.70;99.90
1468;DHT22;727;48.892;9.544;2023-08-06T15:39:34;15.70;99.90
1468;DHT22;727;48.892;9.544;2023-08-06T15:42:02;15.80;99.90
1468;DHT22;727;48.892;9.544;2023-08-06T15:44:29;15.70;99.90
1468;DHT22;727;48.892;9.544;2023-08-06T15:46:56;15.70;99.90
1468;DHT22;727;48.892;9.544;2023-08-06T15:49:23;15.70;99.90
1468;DHT22;727;48.892;9.544;2023-08-06T15:51:50;15.60;99.90
1468;DHT22;727;48.892;9.544;2023-08-06T15:54:21;15.60;99.90
1468;DHT22;727;48.892;9.544;2023-08-06T15:56:47;15.60;99.90
1468;DHT22;727;48.892;9.544;2023-08-06T15:59:23;15.50;99.90
1468;DHT22;727;48.892;9.544;2023-08-06T16:01:50;15.60;99.90
1468;DHT22;727;48.892;9.544;2023-08-06T16:04:17;15.60;99.90
1468;DHT22;727;48.892;9.544;2023-08-06T16:06:44;15.70;99.90
1468;DHT22;727;48.892;9.544;2023-08-06T16:09:11;15.70;99.90
1468;DHT22;727;48.892;9.544;2023-08-06T16:11:38;15.60;99.90
1468;DHT22;727;48.892;9.544;2023-08-06T16:14:05;15.50;99.90
1468;DHT22;727;48.892;9.544;2023-08-06T16:16:36;15.50;99.90
1468;DHT22;727;48.892;9.544;2023-08-06T16:19:03;15.40;99.90
1468;DHT22;727;48.892;9.544;2023-08-06T16:21:32;15.30;99.90
1468;DHT22;727;48.892;9.544;2023-08-06T16:23:58;15.20;99.90
1468;DHT22;727;48.892;9.544;2023-08-06T16:26:25;15.30;99.90
1468;DHT22;727;48.892;9.544;2023-08-06T16:28:52;15.30;99.90
1468;DHT22;727;48.892;9.544;2023-08-06T16:31:19;15.20;99.90
1468;DHT22;727;48.892;9.544;2023-08-06T16:33:48;15.10;99.90
1468;DHT22;727;48.892;9.544;2023-08-06T16:36:14;15.10;99.90
1468;DHT22;727;48.892;9.544;2023-08-06T16:38:41;15.00;99.90
1468;DHT22;727;48.892;9.544;2023-08-06T16:41:08;15.00;99.90
1468;DHT22;727;48.892;9.544;2023-08-06T16:43:35;15.00;99.90
1468;DHT22;727;48.892;9.544;2023-08-06T16:46:02;14.90;99.90
1468;DHT22;727;48.892;9.544;2023-08-06T16:48:29;14.90;99.90